sensor_id;sensor_type;location;lat;lon;timestamp;pressure;altitude;pressure_sealevel;temperature;humidity
20825;BME280;10573;50.936;6.978;2024-01-30T00:00:34;102402.19;;;10.90;62.61
20825;BME280;10573;50.936;6.978;2024-01-30T00:03:00;102402.63;;;10.97;62.41
20825;BME280;10573;50.936;6.978;2024-01-30T00:05:25;102395.63;;;10.93;62.58
20825;BME280;10573;50.936;6.978;2024-01-30T00:07:50;102396.28;;;10.84;62.59
20825;BME280;10573;50.936;6.978;2024-01-30T00:10:16;102399.53;;;10.89;62.57
20825;BME280;10573;50.936;6.978;2024-01-30T00:12:41;102396.47;;;10.81;62.87
20825;BME280;10573;50.936;6.978;2024-01-30T00:15:07;102387.22;;;10.96;62.45
20825;BME280;10573;50.936;6.978;2024-01-30T00:17:35;102386.34;;;10.83;62.63
20825;BME280;10573;50.936;6.978;2024-01-30T00:20:03;102385.78;;;10.78;62.47
20825;BME280;10573;50.936;6.978;2024-01-30T00:22:31;102392.53;;;10.85;62.73
20825;BME280;10573;50.936;6.978;2024-01-30T00:24:57;102386.13;;;10.86;62.65
20825;BME280;10573;50.936;6.978;2024-01-30T00:27:22;102386.13;;;10.86;62.58
20825;BME280;10573;50.936;6.978;2024-01-30T00:29:49;102391.88;;;10.68;62.80
20825;BME280;10573;50.936;6.978;2024-01-30T00:32:14;102387.31;;;10.82;62.92
20825;BME280;10573;50.936;6.978;2024-01-30T00:34:39;102375.56;;;10.81;62.61
20825;BME280;10573;50.936;6.978;2024-01-30T00:37:05;102385.44;;;10.69;63.00
20825;BME280;10573;50.936;6.978;2024-01-30T00:39:30;102372.38;;;10.74;63.05
20825;BME280;10573;50.936;6.978;2024-01-30T00:41:56;102384.66;;;10.67;63.03
20825;BME280;10573;50.936;6.978;2024-01-30T00:44:21;102377.25;;;10.69;63.32
20825;BME280;10573;50.936;6.978;2024-01-30T00:46:46;102384.56;;;10.69;63.17
20825;BME280;10573;50.936;6.978;2024-01-30T00:49:12;102378.25;;;10.68;63.21
20825;BME280;10573;50.936;6.978;2024-01-30T00:51:37;102384.66;;;10.67;63.24
20825;BME280;10573;50.936;6.978;2024-01-30T00:54:03;102373.06;;;10.51;63.64
20825;BME280;10573;50.936;6.978;2024-01-30T00:56:28;102381.75;;;10.70;63.37
20825;BME280;10573;50.936;6.978;2024-01-30T00:58:54;102373.31;;;10.61;63.47
20825;BME280;10573;50.936;6.978;2024-01-30T01:01:19;102375.44;;;10.43;63.91
20825;BME280;10573;50.936;6.978;2024-01-30T01:03:45;102376.47;;;10.67;63.42
20825;BME280;10573;50.936;6.978;2024-01-30T01:06:10;102372.22;;;10.63;63.28
20825;BME280;10573;50.936;6.978;2024-01-30T01:08:36;102375.28;;;10.71;63.15
20825;BME280;10573;50.936;6.978;2024-01-30T01:11:01;102371.19;;;10.79;62.73
20825;BME280;10573;50.936;6.978;2024-01-30T01:13:28;102372.03;;;10.66;63.21
20825;BME280;10573;50.936;6.978;2024-01-30T01:15:54;102372.94;;;10.80;62.89
20825;BME280;10573;50.936;6.978;2024-01-30T01:18:20;102374.59;;;10.55;63.06
20825;BME280;10573;50.936;6.978;2024-01-30T01:20:45;102378.75;;;10.48;63.75
20825;BME280;10573;50.936;6.978;2024-01-30T01:23:11;102376.19;;;10.45;63.76
20825;BME280;10573;50.936;6.978;2024-01-30T01:25:36;102378.13;;;10.57;63.68
20825;BME280;10573;50.936;6.978;2024-01-30T01:28:01;102372.50;;;10.46;63.89
20825;BME280;10573;50.936;6.978;2024-01-30T01:30:27;102374.59;;;10.55;63.54
20825;BME280;10573;50.936;6.978;2024-01-30T01:32:54;102374.38;;;10.45;63.64
20825;BME280;10573;50.936;6.978;2024-01-30T01:35:26;102369.16;;;10.55;63.34
20825;BME280;10573;50.936;6.978;2024-01-30T01:37:52;102369.44;;;10.78;63.24
20825;BME280;10573;50.936;6.978;2024-01-30T01:40:27;102380.06;;;10.55;63.38
20825;BME280;10573;50.936;6.978;2024-01-30T01:42:53;102369.19;;;10.68;63.22
20825;BME280;10573;50.936;6.978;2024-01-30T01:45:20;102374.75;;;10.66;63.30
20825;BME280;10573;50.936;6.978;2024-01-30T01:47:55;102372.44;;;10.60;63.62
20825;BME280;10573;50.936;6.978;2024-01-30T01:50:21;102369.66;;;10.74;63.01
20825;BME280;10573;50.936;6.978;2024-01-30T01:52:47;102363.19;;;10.75;62.98
20825;BME280;10573;50.936;6.978;2024-01-30T01:55:14;102366.81;;;10.76;63.04
20825;BME280;10573;50.936;6.978;2024-01-30T01:57:41;102374.19;;;10.61;63.34
20825;BME280;10573;50.936;6.978;2024-01-30T02:00:08;102367.91;;;10.73;63.26
20825;BME280;10573;50.936;6.978;2024-01-30T02:02:35;102365.06;;;10.75;63.12
20825;BME280;10573;50.936;6.978;2024-01-30T02:05:05;102358.41;;;10.66;63.29
20825;BME280;10573;50.936;6.978;2024-01-30T02:07:30;102361.31;;;10.50;63.69
20825;BME280;10573;50.936;6.978;2024-01-30T02:09:56;102354.78;;;10.66;63.67
20825;BME280;10573;50.936;6.978;2024-01-30T02:12:21;102361.09;;;10.53;63.48
20825;BME280;10573;50.936;6.978;2024-01-30T02:14:47;102351.94;;;10.67;63.42
20825;BME280;10573;50.936;6.978;2024-01-30T02:17:14;102356.50;;;10.54;63.61
20825;BME280;10573;50.936;6.978;2024-01-30T02:19:39;102349.44;;;10.64;63.25
20825;BME280;10573;50.936;6.978;2024-01-30T02:22:05;102347.34;;;10.55;63.58
20825;BME280;10573;50.936;6.978;2024-01-30T02:24:31;102350.41;;;10.63;63.46
20825;BME280;10573;50.936;6.978;2024-01-30T02:26:56;102351.63;;;10.59;63.13
20825;BME280;10573;50.936;6.978;2024-01-30T02:29:22;102357.41;;;10.67;63.45
20825;BME280;10573;50.936;6.978;2024-01-30T02:31:47;102351.06;;;10.54;63.40
20825;BME280;10573;50.936;6.978;2024-01-30T02:34:13;102351.28;;;10.51;63.74
20825;BME280;10573;50.936;6.978;2024-01-30T02:36:42;102345.53;;;10.68;63.68
20825;BME280;10573;50.936;6.978;2024-01-30T02:39:07;102346.44;;;10.41;63.97
20825;BME280;10573;50.936;6.978;2024-01-30T02:41:33;102340.38;;;10.51;63.80
20825;BME280;10573;50.936;6.978;2024-01-30T02:43:58;102350.88;;;10.57;63.65
20825;BME280;10573;50.936;6.978;2024-01-30T02:46:24;102346.50;;;10.54;63.59
20825;BME280;10573;50.936;6.978;2024-01-30T02:48:49;102341.22;;;10.51;63.75
20825;BME280;10573;50.936;6.978;2024-01-30T02:51:14;102336.69;;;10.65;63.45
20825;BME280;10573;50.936;6.978;2024-01-30T02:53:40;102334.28;;;10.60;63.44
20825;BME280;10573;50.936;6.978;2024-01-30T02:56:05;102331.97;;;10.54;63.62
20825;BME280;10573;50.936;6.978;2024-01-30T02:58:31;102332.53;;;10.59;63.71
20825;BME280;10573;50.936;6.978;2024-01-30T03:00:56;102333.50;;;10.58;63.63
20825;BME280;10573;50.936;6.978;2024-01-30T03:03:21;102339.31;;;10.66;63.39
20825;BME280;10573;50.936;6.978;2024-01-30T03:05:47;102329.72;;;10.73;63.22
20825;BME280;10573;50.936;6.978;2024-01-30T03:08:12;102329.59;;;10.62;63.25
20825;BME280;10573;50.936;6.978;2024-01-30T03:10:38;102330.09;;;10.41;63.93
20825;BME280;10573;50.936;6.978;2024-01-30T03:13:03;102327.31;;;10.56;63.63
20825;BME280;10573;50.936;6.978;2024-01-30T03:15:28;102327.22;;;10.70;63.32
20825;BME280;10573;50.936;6.978;2024-01-30T03:17:54;102334.31;;;10.73;63.11
20825;BME280;10573;50.936;6.978;2024-01-30T03:20:19;102327.22;;;10.83;62.95
20825;BME280;10573;50.936;6.978;2024-01-30T03:22:45;102319.69;;;10.74;63.17
20825;BME280;10573;50.936;6.978;2024-01-30T03:25:10;102322.81;;;10.55;63.44
20825;BME280;10573;50.936;6.978;2024-01-30T03:27:35;102325.25;;;10.72;63.33
20825;BME280;10573;50.936;6.978;2024-01-30T03:30:01;102312.94;;;10.80;63.07
20825;BME280;10573;50.936;6.978;2024-01-30T03:32:26;102311.19;;;10.79;62.92
20825;BME280;10573;50.936;6.978;2024-01-30T03:34:52;102313.59;;;10.70;63.26
20825;BME280;10573;50.936;6.978;2024-01-30T03:37:17;102322.09;;;10.79;63.12
20825;BME280;10573;50.936;6.978;2024-01-30T03:39:43;102314.03;;;10.77;63.08
20825;BME280;10573;50.936;6.978;2024-01-30T03:42:08;102308.34;;;10.67;63.21
20825;BME280;10573;50.936;6.978;2024-01-30T03:44:33;102313.03;;;10.65;63.21
20825;BME280;10573;50.936;6.978;2024-01-30T03:46:59;102312.41;;;10.74;63.19
20825;BME280;10573;50.936;6.978;2024-01-30T03:49:24;102314.88;;;10.65;63.42
20825;BME280;10573;50.936;6.978;2024-01-30T03:51:49;102317.28;;;10.56;63.50
20825;BME280;10573;50.936;6.978;2024-01-30T03:54:15;102315.31;;;10.71;63.36
20825;BME280;10573;50.936;6.978;2024-01-30T03:56:41;102312.06;;;10.79;63.12
20825;BME280;10573;50.936;6.978;2024-01-30T03:59:07;102314.97;;;10.63;63.90
20825;BME280;10573;50.936;6.978;2024-01-30T04:01:32;102317.19;;;10.71;63.52
20825;BME280;10573;50.936;6.978;2024-01-30T04:03:58;102309.66;;;10.74;63.37
20825;BME280;10573;50.936;6.978;2024-01-30T04:06:24;102303.78;;;10.81;63.19
20825;BME280;10573;50.936;6.978;2024-01-30T04:08:49;102309.44;;;10.78;63.24
20825;BME280;10573;50.936;6.978;2024-01-30T04:11:14;102303.53;;;10.58;63.78
20825;BME280;10573;50.936;6.978;2024-01-30T04:13:40;102301.78;;;10.44;64.44
20825;BME280;10573;50.936;6.978;2024-01-30T04:16:08;102301.50;;;10.34;64.43
20825;BME280;10573;50.936;6.978;2024-01-30T04:18:33;102293.94;;;10.39;64.36
20825;BME280;10573;50.936;6.978;2024-01-30T04:20:59;102299.19;;;10.28;64.95
20825;BME280;10573;50.936;6.978;2024-01-30T04:23:24;102303.09;;;10.51;64.41
20825;BME280;10573;50.936;6.978;2024-01-30T04:25:50;102305.44;;;10.30;64.57
20825;BME280;10573;50.936;6.978;2024-01-30T04:28:15;102295.00;;;10.37;64.35
20825;BME280;10573;50.936;6.978;2024-01-30T04:30:40;102303.69;;;10.29;64.94
20825;BME280;10573;50.936;6.978;2024-01-30T04:33:06;102298.84;;;10.20;65.12
20825;BME280;10573;50.936;6.978;2024-01-30T04:35:31;102303.50;;;10.18;65.02
20825;BME280;10573;50.936;6.978;2024-01-30T04:37:57;102309.44;;;9.97;65.46
20825;BME280;10573;50.936;6.978;2024-01-30T04:40:22;102303.63;;;10.16;65.16
20825;BME280;10573;50.936;6.978;2024-01-30T04:42:47;102304.06;;;10.10;65.20
20825;BME280;10573;50.936;6.978;2024-01-30T04:45:13;102302.41;;;10.07;65.39
20825;BME280;10573;50.936;6.978;2024-01-30T04:47:38;102303.69;;;10.29;64.98
20825;BME280;10573;50.936;6.978;2024-01-30T04:50:06;102305.59;;;10.14;65.06
20825;BME280;10573;50.936;6.978;2024-01-30T04:52:31;102302.34;;;9.95;65.92
20825;BME280;10573;50.936;6.978;2024-01-30T04:54:57;102301.16;;;9.99;66.00
20825;BME280;10573;50.936;6.978;2024-01-30T04:57:22;102300.09;;;10.01;65.75
20825;BME280;10573;50.936;6.978;2024-01-30T04:59:48;102301.63;;;10.05;65.22
20825;BME280;10573;50.936;6.978;2024-01-30T05:02:13;102304.91;;;10.11;65.65
20825;BME280;10573;50.936;6.978;2024-01-30T05:04:40;102303.72;;;10.15;65.30
20825;BME280;10573;50.936;6.978;2024-01-30T05:07:06;102307.22;;;9.89;65.78
20825;BME280;10573;50.936;6.978;2024-01-30T05:09:31;102299.03;;;10.04;65.45
20825;BME280;10573;50.936;6.978;2024-01-30T05:11:57;102303.94;;;10.12;65.08
20825;BME280;10573;50.936;6.978;2024-01-30T05:14:24;102304.81;;;9.85;65.76
20825;BME280;10573;50.936;6.978;2024-01-30T05:16:50;102296.50;;;10.01;65.43
20825;BME280;10573;50.936;6.978;2024-01-30T05:19:15;102297.72;;;10.10;65.20
20825;BME280;10573;50.936;6.978;2024-01-30T05:21:41;102305.53;;;10.01;65.52
20825;BME280;10573;50.936;6.978;2024-01-30T05:24:06;102302.47;;;9.93;65.47
20825;BME280;10573;50.936;6.978;2024-01-30T05:26:32;102301.97;;;10.01;65.39
20825;BME280;10573;50.936;6.978;2024-01-30T05:28:57;102300.66;;;10.06;65.32
20825;BME280;10573;50.936;6.978;2024-01-30T05:31:23;102303.38;;;10.06;65.24
20825;BME280;10573;50.936;6.978;2024-01-30T05:33:51;102305.66;;;10.00;65.36
20825;BME280;10573;50.936;6.978;2024-01-30T05:36:16;102298.78;;;9.94;65.31
20825;BME280;10573;50.936;6.978;2024-01-30T05:38:42;102294.88;;;9.98;65.28
20825;BME280;10573;50.936;6.978;2024-01-30T05:41:08;102297.94;;;10.06;65.30
20825;BME280;10573;50.936;6.978;2024-01-30T05:43:33;102295.84;;;9.97;65.48
20825;BME280;10573;50.936;6.978;2024-01-30T05:45:59;102294.03;;;9.83;66.13
20825;BME280;10573;50.936;6.978;2024-01-30T05:48:25;102287.53;;;9.86;65.61
20825;BME280;10573;50.936;6.978;2024-01-30T05:50:50;102288.78;;;10.07;65.18
20825;BME280;10573;50.936;6.978;2024-01-30T05:53:15;102294.88;;;9.98;65.70
20825;BME280;10573;50.936;6.978;2024-01-30T05:55:41;102294.88;;;9.98;65.60
20825;BME280;10573;50.936;6.978;2024-01-30T05:58:06;102292.59;;;10.05;65.65
20825;BME280;10573;50.936;6.978;2024-01-30T06:00:32;102289.25;;;10.14;65.14
20825;BME280;10573;50.936;6.978;2024-01-30T06:02:57;102285.06;;;9.96;65.51
20825;BME280;10573;50.936;6.978;2024-01-30T06:05:22;102292.72;;;10.03;65.53
20825;BME280;10573;50.936;6.978;2024-01-30T06:07:48;102294.34;;;10.06;65.29
20825;BME280;10573;50.936;6.978;2024-01-30T06:10:13;102300.53;;;9.95;65.93
20825;BME280;10573;50.936;6.978;2024-01-30T06:12:42;102289.69;;;9.81;66.05
20825;BME280;10573;50.936;6.978;2024-01-30T06:15:08;102290.03;;;9.89;66.18
20825;BME280;10573;50.936;6.978;2024-01-30T06:17:33;102293.13;;;9.97;65.90
20825;BME280;10573;50.936;6.978;2024-01-30T06:19:58;102288.63;;;9.96;65.79
20825;BME280;10573;50.936;6.978;2024-01-30T06:22:24;102287.53;;;9.86;66.08
20825;BME280;10573;50.936;6.978;2024-01-30T06:24:49;102288.50;;;9.85;66.21
20825;BME280;10573;50.936;6.978;2024-01-30T06:27:15;102279.59;;;9.96;65.79
20825;BME280;10573;50.936;6.978;2024-01-30T06:29:43;102284.53;;;10.03;65.67
20825;BME280;10573;50.936;6.978;2024-01-30T06:32:08;102276.59;;;10.13;65.61
20825;BME280;10573;50.936;6.978;2024-01-30T06:34:34;102281.88;;;10.29;65.13
20825;BME280;10573;50.936;6.978;2024-01-30T06:36:59;102280.16;;;10.01;65.70
20825;BME280;10573;50.936;6.978;2024-01-30T06:39:26;102276.88;;;9.96;65.84
20825;BME280;10573;50.936;6.978;2024-01-30T06:41:52;102268.50;;;9.99;65.85
20825;BME280;10573;50.936;6.978;2024-01-30T06:44:18;102270.31;;;10.13;65.67
20825;BME280;10573;50.936;6.978;2024-01-30T06:46:43;102268.09;;;10.18;65.34
20825;BME280;10573;50.936;6.978;2024-01-30T06:49:09;102268.09;;;10.18;65.55
20825;BME280;10573;50.936;6.978;2024-01-30T06:51:34;102278.19;;;10.30;65.09
20825;BME280;10573;50.936;6.978;2024-01-30T06:54:00;102268.38;;;10.28;65.25
20825;BME280;10573;50.936;6.978;2024-01-30T06:56:25;102270.09;;;10.16;65.74
20825;BME280;10573;50.936;6.978;2024-01-30T06:58:50;102273.44;;;10.06;65.97
20825;BME280;10573;50.936;6.978;2024-01-30T07:01:17;102274.28;;;10.34;65.47
20825;BME280;10573;50.936;6.978;2024-01-30T07:03:43;102283.13;;;10.11;65.84
20825;BME280;10573;50.936;6.978;2024-01-30T07:06:09;102279.16;;;10.29;65.32
20825;BME280;10573;50.936;6.978;2024-01-30T07:08:37;102286.25;;;10.32;65.30
20825;BME280;10573;50.936;6.978;2024-01-30T07:11:07;102286.94;;;10.35;64.93
20825;BME280;10573;50.936;6.978;2024-01-30T07:13:34;102293.16;;;9.83;66.21
20825;BME280;10573;50.936;6.978;2024-01-30T07:15:59;102283.59;;;10.17;65.52
20825;BME280;10573;50.936;6.978;2024-01-30T07:18:25;102287.75;;;10.23;65.46
20825;BME280;10573;50.936;6.978;2024-01-30T07:20:50;102294.81;;;10.13;65.70
20825;BME280;10573;50.936;6.978;2024-01-30T07:23:16;102293.63;;;10.30;65.13
20825;BME280;10573;50.936;6.978;2024-01-30T07:25:46;102292.09;;;10.13;65.54
20825;BME280;10573;50.936;6.978;2024-01-30T07:28:13;102293.34;;;10.07;65.44
20825;BME280;10573;50.936;6.978;2024-01-30T07:30:41;102300.03;;;10.16;65.59
20825;BME280;10573;50.936;6.978;2024-01-30T07:33:07;102298.16;;;10.03;65.65
20825;BME280;10573;50.936;6.978;2024-01-30T07:35:35;102300.59;;;10.21;65.29
20825;BME280;10573;50.936;6.978;2024-01-30T07:38:00;102303.91;;;10.26;65.22
20825;BME280;10573;50.936;6.978;2024-01-30T07:40:26;102301.91;;;10.28;65.12
20825;BME280;10573;50.936;6.978;2024-01-30T07:42:53;102299.19;;;10.28;64.92
20825;BME280;10573;50.936;6.978;2024-01-30T07:45:19;102304.50;;;10.17;65.50
20825;BME280;10573;50.936;6.978;2024-01-30T07:47:48;102301.78;;;10.17;65.62
20825;BME280;10573;50.936;6.978;2024-01-30T07:50:14;102301.66;;;10.46;64.84
20825;BME280;10573;50.936;6.978;2024-01-30T07:52:39;102305.38;;;10.57;64.50
20825;BME280;10573;50.936;6.978;2024-01-30T07:55:05;102305.28;;;10.59;64.46
20825;BME280;10573;50.936;6.978;2024-01-30T07:57:33;102295.03;;;10.75;64.33
20825;BME280;10573;50.936;6.978;2024-01-30T07:59:59;102304.41;;;10.71;64.50
20825;BME280;10573;50.936;6.978;2024-01-30T08:02:24;102312.41;;;10.74;64.36
20825;BME280;10573;50.936;6.978;2024-01-30T08:04:50;102318.41;;;10.80;64.14
20825;BME280;10573;50.936;6.978;2024-01-30T08:07:15;102314.91;;;10.90;64.08
20825;BME280;10573;50.936;6.978;2024-01-30T08:09:43;102315.78;;;10.91;63.89
20825;BME280;10573;50.936;6.978;2024-01-30T08:12:08;102317.53;;;10.92;63.72
20825;BME280;10573;50.936;6.978;2024-01-30T08:14:33;102314.34;;;10.98;63.67
20825;BME280;10573;50.936;6.978;2024-01-30T08:16:59;102317.09;;;11.11;63.24
20825;BME280;10573;50.936;6.978;2024-01-30T08:19:24;102313.94;;;11.17;63.27
20825;BME280;10573;50.936;6.978;2024-01-30T08:21:50;102311.84;;;11.08;63.48
20825;BME280;10573;50.936;6.978;2024-01-30T08:24:15;102314.34;;;11.11;63.49
20825;BME280;10573;50.936;6.978;2024-01-30T08:26:40;102312.72;;;10.96;63.86
20825;BME280;10573;50.936;6.978;2024-01-30T08:29:06;102299.66;;;10.88;64.21
20825;BME280;10573;50.936;6.978;2024-01-30T08:31:31;102305.31;;;11.11;63.45
20825;BME280;10573;50.936;6.978;2024-01-30T08:33:57;102299.63;;;11.14;63.45
20825;BME280;10573;50.936;6.978;2024-01-30T08:36:22;102298.97;;;11.23;63.22
20825;BME280;10573;50.936;6.978;2024-01-30T08:38:48;102301.75;;;11.34;62.88
20825;BME280;10573;50.936;6.978;2024-01-30T08:41:13;102307.53;;;11.42;62.45
20825;BME280;10573;50.936;6.978;2024-01-30T08:43:39;102303.63;;;11.34;62.81
20825;BME280;10573;50.936;6.978;2024-01-30T08:46:04;102307.22;;;11.34;62.78
20825;BME280;10573;50.936;6.978;2024-01-30T08:48:30;102322.81;;;11.45;62.67
20825;BME280;10573;50.936;6.978;2024-01-30T08:50:55;102326.13;;;11.37;62.40
20825;BME280;10573;50.936;6.978;2024-01-30T08:53:20;102333.94;;;11.55;62.33
20825;BME280;10573;50.936;6.978;2024-01-30T08:55:46;102331.97;;;11.57;62.11
20825;BME280;10573;50.936;6.978;2024-01-30T08:58:12;102336.03;;;11.38;62.33
20825;BME280;10573;50.936;6.978;2024-01-30T09:00:37;102328.94;;;11.49;62.01
20825;BME280;10573;50.936;6.978;2024-01-30T09:03:03;102331.91;;;11.46;62.03
20825;BME280;10573;50.936;6.978;2024-01-30T09:05:29;102333.41;;;11.37;61.92
20825;BME280;10573;50.936;6.978;2024-01-30T09:07:54;102338.03;;;11.23;62.66
20825;BME280;10573;50.936;6.978;2024-01-30T09:10:20;102334.06;;;11.40;62.24
20825;BME280;10573;50.936;6.978;2024-01-30T09:12:46;102337.13;;;11.49;61.97
20825;BME280;10573;50.936;6.978;2024-01-30T09:15:12;102333.09;;;11.79;61.46
20825;BME280;10573;50.936;6.978;2024-01-30T09:17:37;102340.06;;;11.83;61.12
20825;BME280;10573;50.936;6.978;2024-01-30T09:20:03;102330.00;;;11.96;60.91
20825;BME280;10573;50.936;6.978;2024-01-30T09:22:28;102346.69;;;11.67;61.33
20825;BME280;10573;50.936;6.978;2024-01-30T09:24:54;102334.78;;;12.05;60.92
20825;BME280;10573;50.936;6.978;2024-01-30T09:27:19;102338.28;;;12.07;60.25
20825;BME280;10573;50.936;6.978;2024-01-30T09:29:45;102356.25;;;11.86;61.12
20825;BME280;10573;50.936;6.978;2024-01-30T09:32:10;102364.25;;;12.13;60.51
20825;BME280;10573;50.936;6.978;2024-01-30T09:34:37;102355.25;;;12.24;60.04
20825;BME280;10573;50.936;6.978;2024-01-30T09:37:04;102358.09;;;12.47;59.64
20825;BME280;10573;50.936;6.978;2024-01-30T09:39:29;102356.84;;;12.51;59.49
20825;BME280;10573;50.936;6.978;2024-01-30T09:42:04;102353.66;;;12.57;59.12
20825;BME280;10573;50.936;6.978;2024-01-30T09:44:30;102351.72;;;12.70;58.92
20825;BME280;10573;50.936;6.978;2024-01-30T09:46:57;102356.81;;;12.75;58.93
20825;BME280;10573;50.936;6.978;2024-01-30T09:49:30;102369.22;;;12.68;58.92
20825;BME280;10573;50.936;6.978;2024-01-30T09:51:56;102372.63;;;12.83;58.78
20825;BME280;10573;50.936;6.978;2024-01-30T09:54:22;102379.28;;;12.67;59.02
20825;BME280;10573;50.936;6.978;2024-01-30T09:56:48;102372.38;;;12.86;58.54
20825;BME280;10573;50.936;6.978;2024-01-30T09:59:13;102371.75;;;12.82;58.72
20825;BME280;10573;50.936;6.978;2024-01-30T10:01:39;102369.38;;;12.78;58.83
20825;BME280;10573;50.936;6.978;2024-01-30T10:04:07;102367.38;;;12.80;58.98
20825;BME280;10573;50.936;6.978;2024-01-30T10:06:33;102367.91;;;12.85;58.58
20825;BME280;10573;50.936;6.978;2024-01-30T10:08:59;102371.91;;;12.92;58.66
20825;BME280;10573;50.936;6.978;2024-01-30T10:11:24;102386.06;;;12.97;58.50
20825;BME280;10573;50.936;6.978;2024-01-30T10:13:50;102385.34;;;13.06;58.53
20825;BME280;10573;50.936;6.978;2024-01-30T10:16:15;102384.44;;;12.83;58.94
20825;BME280;10573;50.936;6.978;2024-01-30T10:18:42;102377.06;;;13.08;58.45
20825;BME280;10573;50.936;6.978;2024-01-30T10:21:08;102380.38;;;13.00;58.55
20825;BME280;10573;50.936;6.978;2024-01-30T10:23:34;102369.22;;;13.26;57.99
20825;BME280;10573;50.936;6.978;2024-01-30T10:26:00;102375.19;;;13.08;58.28
20825;BME280;10573;50.936;6.978;2024-01-30T10:28:28;102366.72;;;13.12;58.47
20825;BME280;10573;50.936;6.978;2024-01-30T10:30:58;102365.97;;;13.21;58.30
20825;BME280;10573;50.936;6.978;2024-01-30T10:33:24;102376.97;;;13.32;58.20
20825;BME280;10573;50.936;6.978;2024-01-30T10:35:50;102369.47;;;13.23;58.53
20825;BME280;10573;50.936;6.978;2024-01-30T10:38:19;102363.50;;;13.29;58.28
20825;BME280;10573;50.936;6.978;2024-01-30T10:40:47;102368.97;;;13.29;58.38
20825;BME280;10573;50.936;6.978;2024-01-30T10:43:14;102364.53;;;13.39;58.18
20825;BME280;10573;50.936;6.978;2024-01-30T10:45:42;102360.06;;;13.50;58.18
20825;BME280;10573;50.936;6.978;2024-01-30T10:48:11;102360.53;;;13.66;57.77
20825;BME280;10573;50.936;6.978;2024-01-30T10:50:38;102367.88;;;13.77;57.59
20825;BME280;10573;50.936;6.978;2024-01-30T10:53:06;102355.41;;;13.84;57.29
20825;BME280;10573;50.936;6.978;2024-01-30T10:55:33;102364.34;;;13.98;57.01
20825;BME280;10573;50.936;6.978;2024-01-30T10:58:00;102361.88;;;13.95;56.83
20825;BME280;10573;50.936;6.978;2024-01-30T11:00:26;102365.28;;;13.75;57.20
20825;BME280;10573;50.936;6.978;2024-01-30T11:02:52;102359.75;;;13.98;56.99
20825;BME280;10573;50.936;6.978;2024-01-30T11:05:25;102357.25;;;13.95;57.03
20825;BME280;10573;50.936;6.978;2024-01-30T11:07:51;102351.81;;;13.84;57.15
20825;BME280;10573;50.936;6.978;2024-01-30T11:10:17;102347.53;;;13.91;57.09
20825;BME280;10573;50.936;6.978;2024-01-30T11:12:42;102342.69;;;13.95;57.15
20825;BME280;10573;50.936;6.978;2024-01-30T11:15:11;102359.22;;;14.04;57.01
20825;BME280;10573;50.936;6.978;2024-01-30T11:20:41;102344.25;;;14.08;56.69
20825;BME280;10573;50.936;6.978;2024-01-30T11:23:12;102353.00;;;14.02;56.99
20825;BME280;10573;50.936;6.978;2024-01-30T11:25:37;102352.94;;;14.25;56.71
20825;BME280;10573;50.936;6.978;2024-01-30T11:28:03;102348.50;;;14.45;56.31
20825;BME280;10573;50.936;6.978;2024-01-30T11:30:30;102348.53;;;14.66;55.74
20825;BME280;10573;50.936;6.978;2024-01-30T11:33:07;102339.72;;;14.84;55.22
20825;BME280;10573;50.936;6.978;2024-01-30T11:35:37;102344.88;;;14.98;54.64
20825;BME280;10573;50.936;6.978;2024-01-30T11:38:06;102338.22;;;15.01;54.60
20825;BME280;10573;50.936;6.978;2024-01-30T11:40:32;102339.22;;;15.00;54.70
20825;BME280;10573;50.936;6.978;2024-01-30T11:43:00;102341.25;;;14.98;54.88
20825;BME280;10573;50.936;6.978;2024-01-30T11:45:29;102334.63;;;15.00;54.66
20825;BME280;10573;50.936;6.978;2024-01-30T11:47:55;102335.91;;;14.96;54.91
20825;BME280;10573;50.936;6.978;2024-01-30T11:50:21;102329.72;;;15.04;54.93
20825;BME280;10573;50.936;6.978;2024-01-30T11:52:47;102328.41;;;15.29;53.95
20825;BME280;10573;50.936;6.978;2024-01-30T11:55:14;102335.97;;;15.37;54.20
20825;BME280;10573;50.936;6.978;2024-01-30T11:57:39;102338.75;;;15.16;54.40
20825;BME280;10573;50.936;6.978;2024-01-30T12:00:05;102343.41;;;15.25;54.18
20825;BME280;10573;50.936;6.978;2024-01-30T12:02:42;102335.03;;;15.26;54.17
20825;BME280;10573;50.936;6.978;2024-01-30T12:05:08;102341.59;;;15.04;54.72
20825;BME280;10573;50.936;6.978;2024-01-30T12:07:35;102342.38;;;15.16;55.14
20825;BME280;10573;50.936;6.978;2024-01-30T12:10:01;102337.84;;;15.36;54.24
20825;BME280;10573;50.936;6.978;2024-01-30T12:12:27;102349.38;;;15.30;54.44
20825;BME280;10573;50.936;6.978;2024-01-30T12:14:53;102347.16;;;15.24;54.46
20825;BME280;10573;50.936;6.978;2024-01-30T12:17:31;102342.00;;;15.31;54.55
20825;BME280;10573;50.936;6.978;2024-01-30T12:20:10;102346.44;;;15.22;54.68
20825;BME280;10573;50.936;6.978;2024-01-30T12:22:37;102346.00;;;15.17;54.91
20825;BME280;10573;50.936;6.978;2024-01-30T12:25:07;102345.47;;;15.23;54.66
20825;BME280;10573;50.936;6.978;2024-01-30T12:27:34;102335.94;;;15.27;54.83
20825;BME280;10573;50.936;6.978;2024-01-30T12:29:59;102344.03;;;15.29;54.75
20825;BME280;10573;50.936;6.978;2024-01-30T12:32:25;102349.66;;;15.58;54.07
20825;BME280;10573;50.936;6.978;2024-01-30T12:34:55;102348.44;;;15.51;54.26
20825;BME280;10573;50.936;6.978;2024-01-30T12:37:22;102349.88;;;15.45;54.31
20825;BME280;10573;50.936;6.978;2024-01-30T12:39:50;102347.53;;;15.71;54.13
20825;BME280;10573;50.936;6.978;2024-01-30T12:42:16;102344.16;;;15.58;53.67
20825;BME280;10573;50.936;6.978;2024-01-30T12:44:41;102342.47;;;15.76;53.38
20825;BME280;10573;50.936;6.978;2024-01-30T12:47:09;102345.56;;;15.83;53.47